createdAt,value
2017-05-18T00:00:34.041Z,16.74
2017-05-18T00:01:49.398Z,16.8
2017-05-18T00:03:03.660Z,16.74
2017-05-18T00:04:17.712Z,16.74
2017-05-18T00:05:31.879Z,16.69
2017-05-18T00:06:47.273Z,16.64
2017-05-18T00:08:01.389Z,16.62
2017-05-18T00:09:16.845Z,16.66
2017-05-18T00:10:32.182Z,16.56
2017-05-18T00:11:46.227Z,16.53
2017-05-18T00:13:01.809Z,16.49
2017-05-18T00:14:15.912Z,16.44
2017-05-18T00:15:31.312Z,16.42
2017-05-18T00:16:46.674Z,16.46
2017-05-18T00:18:02.304Z,16.42
2017-05-18T00:19:13.794Z,16.47
2017-05-18T00:20:29.216Z,16.44
2017-05-18T00:21:44.185Z,16.43
2017-05-18T00:22:57.075Z,16.38
2017-05-18T00:24:11.116Z,16.42
2017-05-18T00:25:26.452Z,16.43
2017-05-18T00:26:41.421Z,16.38
2017-05-18T00:27:56.760Z,16.42
2017-05-18T00:29:12.543Z,16.32
2017-05-18T00:30:27.874Z,16.38
2017-05-18T00:31:43.252Z,16.34
2017-05-18T00:32:57.191Z,16.31
2017-05-18T00:34:12.835Z,16.27
2017-05-18T00:35:28.193Z,16.28
2017-05-18T00:36:42.245Z,16.32
2017-05-18T00:37:57.591Z,16.29
2017-05-18T00:39:10.590Z,16.28
2017-05-18T00:40:24.700Z,16.21
2017-05-18T00:41:40.275Z,16.17
2017-05-18T00:42:54.341Z,16.11
2017-05-18T00:44:09.874Z,16.16
2017-05-18T00:45:25.209Z,16.14
2017-05-18T00:46:38.042Z,16.1
2017-05-18T00:47:51.959Z,16.11
2017-05-18T00:49:07.733Z,16.06
2017-05-18T00:50:20.552Z,16.04
2017-05-18T00:51:35.900Z,16.04
2017-05-18T00:52:49.918Z,16.01
2017-05-18T00:54:36.319Z,16.04
2017-05-18T00:55:51.696Z,15.98
2017-05-18T00:57:07.027Z,15.94
2017-05-18T00:58:20.936Z,15.94
2017-05-18T00:59:35.186Z,15.95
2017-05-18T01:00:50.624Z,15.94
2017-05-18T01:02:03.557Z,15.82
2017-05-18T01:03:18.944Z,15.84
2017-05-18T01:04:33.326Z,15.87
2017-05-18T01:05:48.293Z,15.79
2017-05-18T01:07:03.874Z,15.84
2017-05-18T01:08:17.919Z,15.82
2017-05-18T01:09:32.035Z,15.76
2017-05-18T01:10:46.527Z,15.8
2017-05-18T01:12:01.927Z,15.89
2017-05-18T01:13:17.313Z,15.88
2017-05-18T01:14:31.375Z,15.79
2017-05-18T01:15:47.045Z,15.79
2017-05-18T01:17:02.414Z,15.78
2017-05-18T01:18:16.689Z,15.76
2017-05-18T01:19:30.753Z,15.76
2017-05-18T01:20:45.100Z,15.76
2017-05-18T01:21:59.144Z,15.78
2017-05-18T01:23:14.488Z,15.68
2017-05-18T01:24:29.838Z,15.66
2017-05-18T01:25:45.394Z,15.66
2017-05-18T01:27:00.999Z,15.72
2017-05-18T01:28:15.068Z,15.68
2017-05-18T01:29:30.629Z,15.69
2017-05-18T01:30:46.202Z,15.64
2017-05-18T01:32:01.549Z,15.61
2017-05-18T01:33:16.887Z,15.61
2017-05-18T01:34:32.379Z,15.66
2017-05-18T01:35:48.119Z,15.61
2017-05-18T01:37:03.466Z,15.55
2017-05-18T01:38:16.230Z,15.6
2017-05-18T01:39:31.661Z,15.57
2017-05-18T01:40:44.538Z,15.53
2017-05-18T01:41:59.870Z,15.51
2017-05-18T01:43:15.244Z,15.54
2017-05-18T01:44:29.395Z,15.45
2017-05-18T01:45:43.662Z,15.48
2017-05-18T01:46:59.013Z,15.35
2017-05-18T01:48:11.648Z,15.43
2017-05-18T01:49:25.573Z,15.38
2017-05-18T01:50:41.242Z,15.39
2017-05-18T01:51:55.218Z,15.35
2017-05-18T01:53:10.612Z,15.36
2017-05-18T01:54:25.958Z,15.4
2017-05-18T01:55:41.610Z,15.35
2017-05-18T01:56:57.019Z,15.38
2017-05-18T01:58:11.312Z,15.3
2017-05-18T01:59:25.221Z,15.3
2017-05-18T02:00:40.655Z,15.27
2017-05-18T02:01:56.312Z,15.29
2017-05-18T02:03:10.766Z,15.29
2017-05-18T02:04:55.575Z,15.27
2017-05-18T02:06:11.096Z,15.17
2017-05-18T02:07:25.168Z,15.2
2017-05-18T02:08:39.241Z,15.24
2017-05-18T02:09:53.338Z,15.27
2017-05-18T02:11:07.673Z,15.25
2017-05-18T02:12:21.598Z,15.33
2017-05-18T02:13:33.069Z,15.27
2017-05-18T02:14:48.410Z,15.23
2017-05-18T02:16:03.851Z,15.25
2017-05-18T02:17:18.100Z,15.21
2017-05-18T02:18:33.686Z,15.27
2017-05-18T02:19:46.338Z,15.23
2017-05-18T02:21:00.389Z,15.24
2017-05-18T02:22:15.921Z,15.17
2017-05-18T02:23:29.973Z,15.25
2017-05-18T02:24:45.307Z,15.21
2017-05-18T02:26:00.683Z,15.17
2017-05-18T02:27:16.249Z,15.09
2017-05-18T02:28:30.435Z,15.09
2017-05-18T02:29:45.774Z,15.15
2017-05-18T02:30:59.850Z,15.02
2017-05-18T02:32:14.172Z,15.05
2017-05-18T02:33:29.743Z,14.96
2017-05-18T02:34:42.506Z,15.06
2017-05-18T02:35:56.573Z,15.08
2017-05-18T02:37:12.147Z,15.08
2017-05-18T02:38:26.192Z,14.96
2017-05-18T02:39:41.645Z,14.96
2017-05-18T02:40:56.982Z,14.93
2017-05-18T02:42:12.681Z,14.99
2017-05-18T02:43:28.023Z,14.99
2017-05-18T02:44:43.414Z,14.99
2017-05-18T02:45:58.798Z,14.99
2017-05-18T02:47:14.334Z,15
2017-05-18T02:48:29.681Z,14.98
2017-05-18T02:49:45.045Z,14.95
2017-05-18T02:51:00.430Z,14.9
2017-05-18T02:52:16.334Z,14.88
2017-05-18T02:53:31.678Z,14.9
2017-05-18T02:54:45.773Z,14.85
2017-05-18T02:55:59.815Z,14.83
2017-05-18T02:57:13.907Z,14.8
2017-05-18T02:58:26.873Z,14.87
2017-05-18T02:59:39.638Z,14.87
2017-05-18T03:00:54.996Z,14.84
2017-05-18T03:02:10.341Z,14.83
2017-05-18T03:03:25.678Z,14.77
2017-05-18T03:04:41.060Z,14.84
2017-05-18T03:05:55.152Z,14.77
2017-05-18T03:07:09.066Z,14.77
2017-05-18T03:08:24.684Z,14.77
2017-05-18T03:09:40.014Z,14.72
2017-05-18T03:10:54.127Z,14.74
2017-05-18T03:12:09.490Z,14.72
2017-05-18T03:13:23.610Z,14.65
2017-05-18T03:14:37.700Z,14.63
2017-05-18T03:15:53.045Z,14.69
2017-05-18T03:17:06.725Z,14.6
2017-05-18T03:18:22.085Z,14.7
2017-05-18T03:19:37.614Z,14.7
2017-05-18T03:20:52.972Z,14.69
2017-05-18T03:22:07.113Z,14.69
2017-05-18T03:23:22.470Z,14.65
2017-05-18T03:24:35.763Z,14.69
2017-05-18T03:25:51.093Z,14.66
2017-05-18T03:27:06.452Z,14.65
2017-05-18T03:28:19.236Z,14.65
2017-05-18T03:29:34.812Z,14.52
2017-05-18T03:30:50.192Z,14.54
2017-05-18T03:32:04.273Z,14.54
2017-05-18T03:33:19.631Z,14.58
2017-05-18T03:34:35.267Z,14.54
2017-05-18T03:35:50.771Z,14.58
2017-05-18T03:37:06.111Z,14.59
2017-05-18T03:38:21.479Z,14.58
2017-05-18T03:39:37.067Z,14.58
2017-05-18T03:40:51.012Z,14.54
2017-05-18T03:42:06.350Z,14.51
2017-05-18T03:43:18.967Z,14.44
2017-05-18T03:44:32.159Z,14.51
2017-05-18T03:45:47.552Z,14.54
2017-05-18T03:47:02.906Z,14.56
2017-05-18T03:48:15.684Z,14.47
2017-05-18T03:49:31.245Z,14.5
2017-05-18T03:50:45.318Z,14.36
2017-05-18T03:52:00.674Z,14.4
2017-05-18T03:53:13.465Z,14.43
2017-05-18T03:54:29.079Z,14.52
2017-05-18T03:55:45.050Z,14.44
2017-05-18T03:56:59.096Z,14.54
2017-05-18T03:58:13.224Z,14.48
2017-05-18T03:59:26.030Z,14.54
2017-05-18T04:00:41.663Z,14.5
2017-05-18T04:01:56.094Z,14.5
2017-05-18T04:03:10.183Z,14.34
2017-05-18T04:04:22.935Z,14.4
2017-05-18T04:05:38.772Z,14.4
2017-05-18T04:06:54.182Z,14.37
2017-05-18T04:08:09.569Z,14.37
2017-05-18T04:09:22.521Z,14.37
2017-05-18T04:10:38.073Z,14.5
2017-05-18T04:11:53.445Z,14.39
2017-05-18T04:13:08.438Z,14.4
2017-05-18T04:14:22.489Z,14.48
2017-05-18T04:15:38.113Z,14.4
2017-05-18T04:16:53.454Z,14.47
2017-05-18T04:18:06.528Z,14.5
2017-05-18T04:19:20.630Z,14.54
2017-05-18T04:20:36.173Z,14.52
2017-05-18T04:21:51.535Z,14.47
2017-05-18T04:23:06.871Z,14.56
2017-05-18T04:24:22.220Z,14.54
2017-05-18T04:25:38.033Z,14.54
2017-05-18T04:26:53.369Z,14.54
2017-05-18T04:28:08.706Z,14.51
2017-05-18T04:29:24.043Z,14.6
2017-05-18T04:30:39.662Z,14.52
2017-05-18T04:31:53.758Z,14.59
2017-05-18T04:33:09.431Z,14.69
2017-05-18T04:34:24.775Z,14.65
2017-05-18T04:35:38.819Z,14.69
2017-05-18T04:36:53.082Z,14.72
2017-05-18T04:38:07.133Z,14.75
2017-05-18T04:39:20.812Z,14.75
2017-05-18T04:41:07.355Z,14.8
2017-05-18T04:42:22.691Z,14.84
2017-05-18T04:43:36.743Z,14.88
2017-05-18T04:44:50.794Z,14.9
2017-05-18T04:46:06.408Z,14.95
2017-05-18T04:47:21.765Z,14.93
2017-05-18T04:48:35.489Z,15.02
2017-05-18T04:49:50.828Z,14.93
2017-05-18T04:51:06.453Z,14.91
2017-05-18T04:52:21.795Z,15
2017-05-18T04:53:37.122Z,14.95
2017-05-18T04:54:48.590Z,14.99
2017-05-18T04:56:02.880Z,14.98
2017-05-18T04:57:16.939Z,15.08
2017-05-18T04:58:30.613Z,15.15
2017-05-18T04:59:44.673Z,15.05
2017-05-18T05:01:00.314Z,15.03
2017-05-18T05:02:15.874Z,15.09
2017-05-18T05:03:28.641Z,15.17
2017-05-18T05:04:42.703Z,15.21
2017-05-18T05:05:58.047Z,15.17
2017-05-18T05:07:11.961Z,15.23
2017-05-18T05:08:24.810Z,15.25
2017-05-18T05:09:40.167Z,15.25
2017-05-18T05:10:55.507Z,15.27
2017-05-18T05:12:11.206Z,15.3
2017-05-18T05:13:27.022Z,15.27
2017-05-18T05:14:42.121Z,15.36
2017-05-18T05:15:57.622Z,15.4
2017-05-18T05:17:13.187Z,15.42
2017-05-18T05:18:28.171Z,15.5
2017-05-18T05:19:43.590Z,15.5
2017-05-18T05:20:58.947Z,15.51
2017-05-18T05:22:13.215Z,15.61
2017-05-18T05:23:27.271Z,15.58
2017-05-18T05:24:41.369Z,15.63
2017-05-18T05:25:55.408Z,15.7
2017-05-18T05:27:09.583Z,15.76
2017-05-18T05:28:25.287Z,15.84
2017-05-18T05:29:40.730Z,15.82
2017-05-18T05:30:54.800Z,15.94
2017-05-18T05:32:08.880Z,15.92
2017-05-18T05:33:23.146Z,15.94
2017-05-18T05:34:38.507Z,15.98
2017-05-18T05:35:52.597Z,16.01
2017-05-18T05:37:04.088Z,15.95
2017-05-18T05:38:19.626Z,16.1
2017-05-18T05:39:34.999Z,16.16
2017-05-18T05:40:49.284Z,16.07
2017-05-18T05:42:04.635Z,16.13
2017-05-18T05:43:17.464Z,16.16
2017-05-18T05:44:32.806Z,16.19
2017-05-18T05:45:48.348Z,16.17
2017-05-18T05:47:02.293Z,16.25
2017-05-18T05:48:15.150Z,16.29
2017-05-18T05:49:29.298Z,16.24
2017-05-18T05:50:44.480Z,16.29
2017-05-18T05:51:59.889Z,16.38
2017-05-18T05:53:15.451Z,16.35
2017-05-18T05:54:30.790Z,16.42
2017-05-18T05:55:46.139Z,16.46
2017-05-18T05:57:01.549Z,16.49
2017-05-18T05:58:15.669Z,16.5
2017-05-18T05:59:29.732Z,16.49
2017-05-18T06:00:43.774Z,16.5
2017-05-18T06:01:59.403Z,16.47
2017-05-18T06:03:14.794Z,16.47
2017-05-18T06:04:30.340Z,16.5
2017-05-18T06:05:44.257Z,16.42
2017-05-18T06:06:59.692Z,16.47
2017-05-18T06:08:15.542Z,16.47
2017-05-18T06:09:31.148Z,16.39
2017-05-18T06:10:46.506Z,16.43
2017-05-18T06:12:00.565Z,16.5
2017-05-18T06:13:16.146Z,16.46
2017-05-18T06:14:31.750Z,16.53
2017-05-18T06:15:45.811Z,16.56
2017-05-18T06:16:59.787Z,16.66
2017-05-18T06:18:15.147Z,16.62
2017-05-18T06:19:30.711Z,16.74
2017-05-18T06:20:46.111Z,16.74
2017-05-18T06:22:01.496Z,16.83
2017-05-18T06:23:15.547Z,16.89
2017-05-18T06:24:31.116Z,16.98
2017-05-18T06:25:46.619Z,17.02
2017-05-18T06:27:00.530Z,17.06
2017-05-18T06:28:14.793Z,17.02
2017-05-18T06:29:30.385Z,17.04
2017-05-18T06:30:44.435Z,17.04
2017-05-18T06:31:57.074Z,17.11
2017-05-18T06:33:11.162Z,17.21
2017-05-18T06:34:26.702Z,17.08
2017-05-18T06:35:42.048Z,17.19
2017-05-18T06:36:57.402Z,17.2
2017-05-18T06:38:12.740Z,17.19
2017-05-18T06:39:26.999Z,17.32
2017-05-18T06:40:42.341Z,17.27
2017-05-18T06:41:57.761Z,17.4
2017-05-18T06:43:13.107Z,17.46
2017-05-18T06:44:28.680Z,17.47
2017-05-18T06:45:44.115Z,17.49
2017-05-18T06:46:59.482Z,17.47
2017-05-18T06:48:13.540Z,17.52
2017-05-18T06:49:29.082Z,17.62
2017-05-18T06:50:44.471Z,17.61
2017-05-18T06:51:59.816Z,17.72
2017-05-18T06:53:15.219Z,17.75
2017-05-18T06:54:30.754Z,17.77
2017-05-18T06:55:46.085Z,17.82
2017-05-18T06:57:00.177Z,17.95
2017-05-18T06:58:15.577Z,17.94
2017-05-18T06:59:29.640Z,17.98
2017-05-18T07:00:44.821Z,18
2017-05-18T07:02:00.192Z,18
2017-05-18T07:03:14.282Z,18.02
2017-05-18T07:04:27.046Z,18.04
2017-05-18T07:05:40.060Z,18.09
2017-05-18T07:06:55.626Z,18.12
2017-05-18T07:08:11.071Z,18.09
2017-05-18T07:09:25.171Z,18.1
2017-05-18T07:10:40.721Z,18.22
2017-05-18T07:11:56.064Z,18.28
2017-05-18T07:13:11.448Z,18.31
2017-05-18T07:14:24.092Z,18.28
2017-05-18T07:15:39.705Z,18.38
2017-05-18T07:16:55.048Z,18.44
2017-05-18T07:18:08.986Z,18.26
2017-05-18T07:19:24.327Z,18.31
2017-05-18T07:20:39.908Z,18.49
2017-05-18T07:21:55.340Z,18.56
2017-05-18T07:23:10.701Z,18.5
2017-05-18T07:24:24.767Z,18.55
2017-05-18T07:25:40.335Z,18.5
2017-05-18T07:26:55.707Z,18.57
2017-05-18T07:28:11.127Z,18.69
2017-05-18T07:29:26.474Z,18.72
2017-05-18T07:30:40.737Z,18.65
2017-05-18T07:31:54.797Z,18.79
2017-05-18T07:33:10.249Z,18.88
2017-05-18T07:34:25.674Z,18.9
2017-05-18T07:35:41.501Z,18.91
2017-05-18T07:36:56.946Z,19
2017-05-18T07:38:12.343Z,19.08
2017-05-18T07:39:26.266Z,19.08
2017-05-18T07:40:41.843Z,19.18
2017-05-18T07:41:57.291Z,19.18
2017-05-18T07:43:12.646Z,19.24
2017-05-18T07:44:28.027Z,19.34
2017-05-18T07:45:43.620Z,19.37
2017-05-18T07:47:05.233Z,19.42
2017-05-18T07:48:19.532Z,19.46
2017-05-18T07:49:33.593Z,19.58
2017-05-18T07:50:47.765Z,19.64
2017-05-18T07:52:03.121Z,19.6
2017-05-18T08:00:37.104Z,19.85
2017-05-18T08:01:52.482Z,19.83
2017-05-18T08:03:07.827Z,19.92
2017-05-18T08:04:23.177Z,19.92
2017-05-18T08:05:38.733Z,19.9
2017-05-18T08:06:52.688Z,19.95
2017-05-18T08:08:08.159Z,20.05
2017-05-18T08:09:22.088Z,20.03
2017-05-18T08:10:37.927Z,20.08
2017-05-18T08:11:53.275Z,20.3
2017-05-18T08:13:08.980Z,20.34
2017-05-18T08:14:22.962Z,20.42
2017-05-18T08:15:38.562Z,20.49
2017-05-18T08:16:53.944Z,20.56
2017-05-18T08:18:09.435Z,20.64
2017-05-18T08:19:24.806Z,20.78
2017-05-18T08:20:40.604Z,20.91
2017-05-18T08:21:54.662Z,20.88
2017-05-18T08:23:10.027Z,20.98
2017-05-18T08:24:25.591Z,21.18
2017-05-18T08:25:41.236Z,21.15
2017-05-18T08:26:55.181Z,21.22
2017-05-18T08:28:10.549Z,21.27
2017-05-18T08:29:25.898Z,21.41
2017-05-18T08:30:41.588Z,21.56
2017-05-18T08:31:55.613Z,21.57
2017-05-18T08:33:09.711Z,21.65
2017-05-18T08:34:22.481Z,21.84
2017-05-18T08:35:36.610Z,21.98
2017-05-18T08:36:51.010Z,22.13
2017-05-18T08:38:05.239Z,22.27
2017-05-18T08:39:20.616Z,22.64
2017-05-18T08:40:35.591Z,22.98
2017-05-18T08:41:51.141Z,23.6
2017-05-18T08:43:06.539Z,24.25
2017-05-18T08:44:21.897Z,24.8
2017-05-18T08:46:08.456Z,25.36
2017-05-18T08:47:21.159Z,25.66
2017-05-18T08:48:36.512Z,25.87
2017-05-18T08:49:51.495Z,26.07
2017-05-18T08:51:05.880Z,26.27
2017-05-18T08:52:19.996Z,26.49
2017-05-18T08:53:34.125Z,26.88
2017-05-18T08:54:48.258Z,27.23
2017-05-18T08:56:03.810Z,27.55
2017-05-18T08:57:19.186Z,28.01
2017-05-18T08:58:34.776Z,28.27
2017-05-18T08:59:50.158Z,28.44
2017-05-18T09:01:04.331Z,28.53
2017-05-18T09:02:18.394Z,28.76
2017-05-18T09:03:33.870Z,29.02
2017-05-18T09:04:49.260Z,29.32
2017-05-18T09:06:04.883Z,29.5
2017-05-18T09:07:20.283Z,29.72
2017-05-18T09:08:33.083Z,29.73
2017-05-18T09:09:47.392Z,29.92
2017-05-18T09:11:02.836Z,29.94
2017-05-18T09:12:14.556Z,29.91
2017-05-18T09:13:27.335Z,29.91
2017-05-18T09:14:42.716Z,29.88
2017-05-18T09:15:57.753Z,29.94
2017-05-18T09:17:12.180Z,29.92
2017-05-18T09:18:27.614Z,30.12
2017-05-18T09:19:43.040Z,30.22
2017-05-18T09:20:57.126Z,30.16
2017-05-18T09:22:11.548Z,30.16
2017-05-18T09:23:25.591Z,30.17
2017-05-18T09:24:39.770Z,30.3
2017-05-18T09:25:53.846Z,30.14
2017-05-18T09:27:09.315Z,30.3
2017-05-18T09:28:24.698Z,30.35
2017-05-18T09:29:38.763Z,30.45
2017-05-18T09:30:54.263Z,30.38
2017-05-18T09:32:10.133Z,30.23
2017-05-18T09:33:25.220Z,30.14
2017-05-18T09:34:40.587Z,30.12
2017-05-18T09:35:55.989Z,30.26
2017-05-18T09:37:11.204Z,30.2
2017-05-18T09:38:26.575Z,30.2
2017-05-18T09:39:42.084Z,30.16
2017-05-18T09:40:57.746Z,30.16
2017-05-18T09:42:13.333Z,30.47
2017-05-18T09:43:28.704Z,30.67
2017-05-18T09:44:44.089Z,30.93
2017-05-18T09:45:58.044Z,31.22
2017-05-18T09:47:10.883Z,31.42
2017-05-18T09:48:26.504Z,31.68
2017-05-18T09:49:41.877Z,31.82
2017-05-18T09:50:55.959Z,31.95
2017-05-18T09:52:10.072Z,32.21
2017-05-18T09:53:25.696Z,32.38
2017-05-18T09:54:41.048Z,32.35
2017-05-18T09:55:56.481Z,32.29
2017-05-18T09:57:11.915Z,32.02
2017-05-18T09:58:27.471Z,31.84
2017-05-18T09:59:41.599Z,31.5
2017-05-18T10:00:57.072Z,31.23
2017-05-18T10:02:12.439Z,30.93
2017-05-18T10:03:26.705Z,30.63
2017-05-18T10:04:42.113Z,30.32
2017-05-18T10:05:57.735Z,30.04
2017-05-18T10:07:13.141Z,30.03
2017-05-18T10:08:27.377Z,30.03
2017-05-18T10:09:39.814Z,29.88
2017-05-18T10:10:54.823Z,29.76
2017-05-18T10:12:10.185Z,29.55
2017-05-18T10:13:25.854Z,29.4
2017-05-18T10:14:41.247Z,29.35
2017-05-18T10:15:56.614Z,29.47
2017-05-18T10:17:10.680Z,29.62
2017-05-18T10:18:25.883Z,29.87
2017-05-18T10:19:41.246Z,30.03
2017-05-18T10:20:55.456Z,30.12
2017-05-18T10:22:09.545Z,30.32
2017-05-18T10:23:23.741Z,30.38
2017-05-18T10:24:37.828Z,30.37
2017-05-18T10:25:53.235Z,30.37
2017-05-18T10:27:07.314Z,30.32
2017-05-18T10:28:21.269Z,30.42
2017-05-18T10:29:35.572Z,30.35
2017-05-18T10:30:49.656Z,30.37
2017-05-18T10:32:03.719Z,30.26
2017-05-18T10:33:19.154Z,30.11
2017-05-18T10:34:34.587Z,30.1
2017-05-18T10:35:48.643Z,30.25
2017-05-18T10:37:04.063Z,30.25
2017-05-18T10:38:19.543Z,30.39
2017-05-18T10:39:35.231Z,30.42
2017-05-18T10:40:50.597Z,30.45
2017-05-18T10:42:04.757Z,30.78
2017-05-18T10:43:20.155Z,30.81
2017-05-18T10:44:34.358Z,30.98
2017-05-18T10:45:47.113Z,31.05
2017-05-18T10:47:01.263Z,31.18
2017-05-18T10:48:15.390Z,31.25
2017-05-18T10:49:31.062Z,31.16
2017-05-18T10:50:45.404Z,31.07
2017-05-18T10:52:00.400Z,30.86
2017-05-18T10:53:13.053Z,30.81
2017-05-18T10:54:27.402Z,30.61
2017-05-18T10:55:41.539Z,30.56
2017-05-18T10:56:57.021Z,30.54
2017-05-18T10:58:10.733Z,30.47
2017-05-18T10:59:26.374Z,30.45
2017-05-18T11:00:41.747Z,30.45
2017-05-18T11:01:55.836Z,30.41
2017-05-18T11:03:09.922Z,30.2
2017-05-18T11:04:24.012Z,30.1
2017-05-18T11:05:39.658Z,29.88
2017-05-18T11:06:52.575Z,29.88
2017-05-18T11:08:06.718Z,29.91
2017-05-18T11:09:22.096Z,29.84
2017-05-18T11:10:36.379Z,30
2017-05-18T11:11:50.450Z,29.97
2017-05-18T11:13:06.093Z,29.95
2017-05-18T11:14:18.775Z,29.94
2017-05-18T11:15:33.047Z,29.82
2017-05-18T11:16:47.148Z,29.75
2017-05-18T11:18:01.241Z,29.85
2017-05-18T11:19:14.034Z,29.89
2017-05-18T11:20:28.321Z,29.92
2017-05-18T11:21:44.051Z,29.89
2017-05-18T11:22:59.475Z,29.69
2017-05-18T11:24:13.556Z,29.55
2017-05-18T11:25:29.167Z,29.5
2017-05-18T11:26:44.798Z,29.45
2017-05-18T11:28:00.209Z,29.45
2017-05-18T11:29:14.355Z,29.48
2017-05-18T11:30:29.954Z,29.53
2017-05-18T11:31:45.380Z,29.7
2017-05-18T11:32:56.744Z,29.82
2017-05-18T11:34:12.142Z,30
2017-05-18T11:35:27.513Z,30.23
2017-05-18T11:36:41.823Z,30.41
2017-05-18T11:37:55.796Z,30.51
2017-05-18T11:39:11.175Z,30.6
2017-05-18T11:40:23.964Z,30.6
2017-05-18T11:41:39.357Z,30.6
2017-05-18T11:42:52.162Z,30.39
2017-05-18T11:44:07.582Z,30.19
2017-05-18T11:45:22.951Z,30.17
2017-05-18T11:46:35.829Z,30.14
2017-05-18T11:47:51.189Z,30.26
2017-05-18T11:49:02.709Z,30.3
2017-05-18T11:50:18.089Z,30.32
2017-05-18T11:51:33.717Z,30.25
2017-05-18T11:52:47.785Z,30.23
2017-05-18T11:54:01.879Z,30.22
2017-05-18T11:55:17.282Z,30.38
2017-05-18T11:56:32.650Z,30.63
2017-05-18T11:57:48.354Z,30.74
2017-05-18T11:59:03.761Z,30.78
2017-05-18T12:00:16.589Z,30.76
2017-05-18T12:01:32.045Z,30.85
2017-05-18T12:02:46.339Z,31.04
2017-05-18T12:04:01.709Z,31.09
2017-05-18T12:05:17.087Z,31.13
2017-05-18T12:06:31.226Z,31
2017-05-18T12:07:45.505Z,30.96
2017-05-18T12:08:59.604Z,30.97
2017-05-18T12:10:15.022Z,30.94
2017-05-18T12:11:30.445Z,30.83
2017-05-18T12:12:43.354Z,30.76
2017-05-18T12:13:58.739Z,30.79
2017-05-18T12:15:14.180Z,30.6
2017-05-18T12:16:28.314Z,30.47
2017-05-18T12:17:43.961Z,30.32
2017-05-18T12:18:59.379Z,30.17
2017-05-18T12:20:14.748Z,29.89
2017-05-18T12:21:28.849Z,29.85
2017-05-18T12:22:40.229Z,29.88
2017-05-18T12:23:55.782Z,29.91
2017-05-18T12:25:11.163Z,30.04
2017-05-18T12:26:26.622Z,29.97
2017-05-18T12:27:41.845Z,30.08
2017-05-18T12:28:57.460Z,29.94
2017-05-18T12:30:12.829Z,29.84
2017-05-18T12:31:28.239Z,29.87
2017-05-18T12:32:40.933Z,29.84
2017-05-18T12:33:55.362Z,29.87
2017-05-18T12:35:07.813Z,29.69
2017-05-18T12:36:21.528Z,29.6
2017-05-18T12:37:36.924Z,29.54
2017-05-18T12:38:51.007Z,29.4
2017-05-18T12:40:05.144Z,29.5
2017-05-18T12:41:19.115Z,29.4
2017-05-18T12:42:33.203Z,29.23
2017-05-18T12:43:47.544Z,28.99
2017-05-18T12:45:02.988Z,28.92
2017-05-18T12:46:18.372Z,28.91
2017-05-18T12:47:33.953Z,28.87
2017-05-18T12:48:49.539Z,28.74
2017-05-18T12:50:05.192Z,28.65
2017-05-18T12:51:20.880Z,28.74
2017-05-18T12:52:34.954Z,28.74
2017-05-18T12:53:50.563Z,28.65
2017-05-18T12:55:05.935Z,28.58
2017-05-18T12:56:21.303Z,28.41
2017-05-18T12:57:35.383Z,28.44
2017-05-18T12:58:46.884Z,28.35
2017-05-18T13:00:02.479Z,28.29
2017-05-18T13:01:17.973Z,28.2
2017-05-18T13:02:32.074Z,28.16
2017-05-18T13:03:47.460Z,28.08
2017-05-18T13:05:03.239Z,28.05
2017-05-18T13:06:18.651Z,27.95
2017-05-18T13:07:34.025Z,28.02
2017-05-18T13:08:49.602Z,27.92
2017-05-18T13:10:05.174Z,27.9
2017-05-18T13:11:20.576Z,27.87
2017-05-18T13:12:34.694Z,27.98
2017-05-18T13:13:48.782Z,27.9
2017-05-18T13:15:04.442Z,27.72
2017-05-18T13:16:19.441Z,27.63
2017-05-18T13:17:34.847Z,27.58
2017-05-18T13:18:50.241Z,27.58
2017-05-18T13:20:04.584Z,27.61
2017-05-18T13:21:20.257Z,27.52
2017-05-18T13:22:35.675Z,27.42
2017-05-18T13:23:51.030Z,27.42
2017-05-18T13:25:05.186Z,27.28
2017-05-18T13:26:19.265Z,27.28
2017-05-18T13:27:32.991Z,27.17
2017-05-18T13:28:48.375Z,27.11
2017-05-18T13:30:04.006Z,27.17
2017-05-18T13:31:19.405Z,27.11
2017-05-18T13:32:34.780Z,27.1
2017-05-18T13:33:50.262Z,27.12
2017-05-18T13:35:04.493Z,27.15
2017-05-18T13:36:18.643Z,27.14
2017-05-18T13:37:32.383Z,27.14
2017-05-18T13:38:46.540Z,27.1
2017-05-18T13:40:00.933Z,27.11
2017-05-18T13:41:16.337Z,27.15
2017-05-18T13:42:30.295Z,27.15
2017-05-18T13:43:44.401Z,27.14
2017-05-18T13:45:00.001Z,27.08
2017-05-18T13:46:15.714Z,27.1
2017-05-18T13:47:29.828Z,27.28
2017-05-18T13:48:42.637Z,27.3
2017-05-18T13:49:58.017Z,27.31
2017-05-18T13:51:13.584Z,27.26
2017-05-18T13:52:27.703Z,27.34
2017-05-18T13:53:43.069Z,27.28
2017-05-18T13:54:57.144Z,27.34
2017-05-18T13:56:12.731Z,27.35
2017-05-18T13:57:26.797Z,27.37
2017-05-18T13:58:43.079Z,27.31
2017-05-18T13:59:58.451Z,27.31
2017-05-18T14:01:12.620Z,27.31
2017-05-18T14:02:28.306Z,27.34
2017-05-18T14:03:42.407Z,27.26
2017-05-18T14:04:57.780Z,27.11
2017-05-18T14:06:12.157Z,27.07
2017-05-18T14:07:27.590Z,27.1
2017-05-18T14:08:40.453Z,26.99
2017-05-18T14:09:55.849Z,26.96
2017-05-18T14:11:11.432Z,26.99
2017-05-18T14:12:24.262Z,26.96
2017-05-18T14:13:38.366Z,26.96
2017-05-18T14:14:53.737Z,26.95
2017-05-18T14:16:09.429Z,26.93
2017-05-18T14:17:25.058Z,26.93
2017-05-18T14:18:40.274Z,26.92
2017-05-18T14:19:54.370Z,26.83
2017-05-18T14:21:09.753Z,26.92
2017-05-18T14:22:24.098Z,26.92
2017-05-18T14:23:39.512Z,26.9
2017-05-18T14:24:54.905Z,26.88
2017-05-18T14:26:10.441Z,26.99
2017-05-18T14:27:26.073Z,26.95
2017-05-18T14:28:40.163Z,26.98
2017-05-18T14:29:54.155Z,26.98
2017-05-18T14:31:09.532Z,27.05
2017-05-18T14:32:25.194Z,26.98
2017-05-18T14:33:40.636Z,26.99
2017-05-18T14:34:54.875Z,27.03
2017-05-18T14:36:10.254Z,27.1
2017-05-18T14:37:24.619Z,27.04
2017-05-18T14:38:40.386Z,27.05
2017-05-18T14:39:55.758Z,27.12
2017-05-18T14:41:11.516Z,27.08
2017-05-18T14:42:26.727Z,27.11
2017-05-18T14:43:40.801Z,27.23
2017-05-18T14:44:54.887Z,27.2
2017-05-18T14:46:10.288Z,27.08
2017-05-18T14:47:56.844Z,27.15
2017-05-18T14:49:12.222Z,27.12
2017-05-18T14:50:26.171Z,27.08
2017-05-18T14:51:41.569Z,27.05
2017-05-18T14:52:55.877Z,27.11
2017-05-18T14:54:09.965Z,27.11
2017-05-18T14:55:24.049Z,27.14
2017-05-18T14:56:39.454Z,27.08
2017-05-18T14:57:55.105Z,27.17
2017-05-18T14:59:10.479Z,27.11
2017-05-18T15:00:25.886Z,27.24
2017-05-18T15:01:41.258Z,27.08
2017-05-18T15:02:57.026Z,27.01
2017-05-18T15:04:11.176Z,26.95
2017-05-18T15:05:26.788Z,26.98
2017-05-18T15:06:42.183Z,26.89
2017-05-18T15:07:56.555Z,26.83
2017-05-18T15:09:12.007Z,26.78
2017-05-18T15:10:27.028Z,26.78
2017-05-18T15:11:41.191Z,26.75
2017-05-18T15:12:55.380Z,26.71
2017-05-18T15:14:08.309Z,26.64
2017-05-18T15:15:20.730Z,26.62
2017-05-18T15:16:36.095Z,26.67
2017-05-18T15:17:51.534Z,26.73
2017-05-18T15:19:05.966Z,26.73
2017-05-18T15:20:21.330Z,26.68
2017-05-18T15:21:36.740Z,26.66
2017-05-18T15:22:50.822Z,26.7
2017-05-18T15:24:06.457Z,26.67
2017-05-18T15:25:21.855Z,26.73
2017-05-18T15:26:37.271Z,26.7
2017-05-18T15:27:48.713Z,26.71
2017-05-18T15:29:04.370Z,26.71
2017-05-18T15:30:18.521Z,26.64
2017-05-18T15:31:34.006Z,26.73
2017-05-18T15:32:49.397Z,26.74
2017-05-18T15:34:03.800Z,26.7
2017-05-18T15:35:17.955Z,26.67
2017-05-18T15:36:33.365Z,26.73
2017-05-18T15:37:47.419Z,26.64
2017-05-18T15:39:02.850Z,26.73
2017-05-18T15:40:18.488Z,26.7
2017-05-18T15:41:33.863Z,26.7
2017-05-18T15:42:48.047Z,26.64
2017-05-18T15:44:02.131Z,26.71
2017-05-18T15:45:17.783Z,26.67
2017-05-18T15:46:31.513Z,26.66
2017-05-18T15:47:45.625Z,26.61
2017-05-18T15:48:58.295Z,26.71
2017-05-18T15:50:13.926Z,26.71
2017-05-18T15:51:28.005Z,26.68
2017-05-18T15:52:42.104Z,26.67
2017-05-18T15:53:56.173Z,26.71
2017-05-18T15:55:11.824Z,26.88
2017-05-18T15:56:27.417Z,26.95
2017-05-18T15:57:42.840Z,26.99
2017-05-18T15:58:58.531Z,27.07
2017-05-18T16:00:14.194Z,27.14
2017-05-18T16:01:29.571Z,27.1
2017-05-18T16:02:45.029Z,27.08
2017-05-18T16:04:00.455Z,27.26
2017-05-18T16:05:16.085Z,27.15
2017-05-18T16:06:31.442Z,27.05
2017-05-18T16:07:46.817Z,26.92
2017-05-18T16:09:02.178Z,26.95
2017-05-18T16:10:15.212Z,26.82
2017-05-18T16:11:30.691Z,26.75
2017-05-18T16:12:45.262Z,26.73
2017-05-18T16:13:59.570Z,26.67
2017-05-18T16:15:15.215Z,26.43
2017-05-18T16:17:01.507Z,26.34
2017-05-18T16:18:14.599Z,26.21